Time;durP1;ratioP1;P1;durP2;ratioP2;P2;SDS_P1;SDS_P2;PMS_P1;PMS_P2;Temp;Humidity;BMP_temperature;BMP_pressure;BME280_temperature;BME280_humidity;BME280_pressure;Samples;Min_cycle;Max_cycle;Signal;HPM_P1;HPM_P2
2022/03/11 00:04:39;;;;;;;3.20;2.05;;;;;;;20.37;42.40;101983.50;20654895;28;97206;-78
2022/03/11 00:14:39;;;;;;;2.55;2.05;;;;;;;20.34;42.50;101984.53;20655229;28;97486;-78
2022/03/11 00:24:40;;;;;;;3.13;1.73;;;;;;;20.29;42.10;101979.47;20659387;28;97586;-78
2022/03/11 00:34:40;;;;;;;3.30;1.88;;;;;;;20.27;42.09;101968.16;20652871;28;97971;-78
2022/03/11 00:44:41;;;;;;;3.03;1.88;;;;;;;20.24;41.80;101976.22;20651647;27;97730;-78
2022/03/11 00:54:43;;;;;;;2.28;1.80;;;;;;;20.20;41.95;101969.41;20662528;28;98870;-77
2022/03/11 01:04:43;;;;;;;2.42;1.90;;;;;;;20.16;41.79;101967.84;20651518;27;96863;-78
2022/03/11 01:14:44;;;;;;;2.50;1.92;;;;;;;20.17;41.84;101963.44;20650331;28;98121;-78
2022/03/11 01:24:44;;;;;;;2.20;1.73;;;;;;;20.11;41.88;101957.53;20663156;28;99487;-78
2022/03/11 01:34:45;;;;;;;3.30;2.00;;;;;;;20.10;42.04;101963.75;20664882;28;97910;-78
2022/03/11 01:44:45;;;;;;;2.35;1.75;;;;;;;20.11;41.72;101957.53;20664739;28;97531;-78
2022/03/11 01:54:47;;;;;;;2.15;1.88;;;;;;;20.10;41.73;101954.97;20667159;27;97890;-77
2022/03/11 02:04:48;;;;;;;2.40;1.80;;;;;;;20.06;41.66;101953.44;20650103;28;97373;-78
2022/03/11 02:14:50;;;;;;;2.10;1.80;;;;;;;20.03;41.88;101949.19;20666425;28;97445;-77
2022/03/11 02:24:54;;;;;;;2.53;2.00;;;;;;;20.02;41.76;101952.72;20666189;27;97035;-78
2022/03/11 02:34:54;;;;;;;3.53;2.10;;;;;;;20.02;41.57;101952.72;20665212;27;96976;-78
2022/03/11 02:44:58;;;;;;;2.80;2.10;;;;;;;19.95;41.80;101956.56;20669558;28;98731;-77
2022/03/11 02:54:59;;;;;;;;;;;;;;;20.00;41.59;101951.94;20666205;28;98741;-78
2022/03/11 03:04:59;;;;;;;3.67;2.00;;;;;;;19.96;41.82;101937.25;20670040;28;97048;-78
2022/03/11 03:15:00;;;;;;;2.22;1.95;;;;;;;19.91;41.68;101955.88;20664207;27;97038;-77
2022/03/11 03:25:01;;;;;;;2.05;1.85;;;;;;;19.92;41.61;101943.56;20666819;28;97543;-78
2022/03/11 03:35:01;;;;;;;2.35;2.00;;;;;;;19.92;41.62;101941.81;20674808;28;98037;-78
2022/03/11 03:45:03;;;;;;;2.30;2.00;;;;;;;19.92;41.76;101944.44;20655396;28;99957;-77
2022/03/11 03:55:05;;;;;;;2.88;2.20;;;;;;;19.90;41.56;101948.06;20658215;28;97447;-77
2022/03/11 04:05:07;;;;;;;2.33;2.03;;;;;;;19.89;41.44;101962.13;20652919;27;97038;-79
2022/03/11 04:15:08;;;;;;;3.30;2.20;;;;;;;19.86;41.39;101962.25;20654852;28;97219;-78
2022/03/11 04:25:11;;;;;;;2.55;2.03;;;;;;;19.89;41.40;101972.63;20652987;28;101560;-78
2022/03/11 04:35:11;;;;;;;2.63;1.90;;;;;;;19.86;41.46;101971.00;20660376;28;99372;-78
2022/03/11 04:45:12;;;;;;;2.38;1.95;;;;;;;19.86;41.09;101971.00;20649199;28;98230;-78
2022/03/11 04:55:15;;;;;;;2.40;1.90;;;;;;;19.83;41.26;101979.00;20659645;28;100306;-77
2022/03/11 05:05:16;;;;;;;2.72;2.17;;;;;;;19.86;41.23;101978.91;20657598;28;97661;-78
2022/03/11 05:15:17;;;;;;;2.58;1.95;;;;;;;19.98;41.97;101999.34;20659279;28;98340;-79
2022/03/11 05:25:20;;;;;;;8.25;3.10;;;;;;;20.20;42.67;101990.47;20653957;27;101484;-79
2022/03/11 05:35:20;;;;;;;4.67;2.73;;;;;;;20.34;43.13;102004.72;20635625;27;98990;-79
2022/03/11 05:45:21;;;;;;;5.40;3.08;;;;;;;20.41;42.62;102009.59;20640351;28;98587;-78
2022/03/11 05:55:21;;;;;;;8.90;3.35;;;;;;;20.47;42.50;102022.47;20674224;28;99833;-78
2022/03/11 06:05:22;;;;;;;8.63;4.20;;;;;;;20.56;42.79;102034.31;20654140;28;99867;-80
2022/03/11 06:15:23;;;;;;;6.82;4.15;;;;;;;20.62;42.52;102044.53;20670856;27;100749;-83
2022/03/11 06:25:24;;;;;;;14.30;4.68;;;;;;;20.53;40.26;102052.03;20632119;27;99078;-82
2022/03/11 06:35:24;;;;;;;8.27;4.15;;;;;;;20.46;38.89;102043.59;20672876;28;97877;-78
2022/03/11 06:45:25;;;;;;;11.98;4.05;;;;;;;20.36;36.67;102053.72;20644288;28;97714;-78
2022/03/11 06:55:25;;;;;;;9.57;4.53;;;;;;;20.52;37.66;102053.81;20642850;27;99120;-79
2022/03/11 07:05:26;;;;;;;8.90;5.55;;;;;;;20.63;39.13;102061.22;20673652;27;100267;-77
2022/03/11 07:15:26;;;;;;;10.55;6.80;;;;;;;20.68;39.62;102067.09;20645032;28;101469;-78
2022/03/11 07:25:34;;;;;;;8.93;5.80;;;;;;;20.81;40.57;102058.63;20653206;27;99900;-80
2022/03/11 07:35:35;;;;;;;33.20;8.23;;;;;;;20.85;39.84;102066.28;20671876;28;97319;-80
2022/03/11 07:45:37;;;;;;;12.73;8.48;;;;;;;20.85;39.37;102058.41;20668383;28;99780;-79
2022/03/11 07:55:37;;;;;;;9.57;7.03;;;;;;;20.89;39.42;102072.28;20661560;28;97652;-79
2022/03/11 08:05:38;;;;;;;9.98;7.35;;;;;;;20.95;40.25;102061.44;20668807;28;98850;-79
2022/03/11 08:15:38;;;;;;;8.90;7.15;;;;;;;21.01;39.40;102058.47;20658905;28;100138;-77
2022/03/11 08:25:39;;;;;;;9.40;7.05;;;;;;;20.97;39.25;102054.31;20656634;28;97820;-81
2022/03/11 08:35:40;;;;;;;7.78;6.55;;;;;;;21.02;39.65;102052.28;20690427;27;100730;-79
2022/03/11 08:45:42;;;;;;;9.57;6.63;;;;;;;21.07;40.04;102037.09;20697104;28;97709;-80
2022/03/11 08:55:43;;;;;;;7.70;5.70;;;;;;;21.11;39.52;102033.38;20693062;28;97078;-77
2022/03/11 09:05:43;;;;;;;8.40;5.50;;;;;;;21.15;39.35;102023.53;20681497;28;96977;-80
2022/03/11 09:15:45;;;;;;;6.97;5.35;;;;;;;21.16;40.08;102011.22;20682104;27;97922;-79
2022/03/11 09:25:46;;;;;;;7.22;5.53;;;;;;;21.15;39.73;102006.88;20695287;27;98494;-79
2022/03/11 09:35:46;;;;;;;6.75;4.88;;;;;;;21.14;40.18;101998.16;20687360;28;96909;-78
2022/03/11 09:45:47;;;;;;;6.90;4.95;;;;;;;21.19;39.51;101990.84;20679578;28;97207;-81
2022/03/11 09:55:50;;;;;;;9.82;5.00;;;;;;;21.24;39.38;101982.72;20681768;28;100241;-88
2022/03/11 10:05:53;;;;;;;7.25;3.85;;;;;;;20.72;30.72;101975.69;20670749;28;97207;-79
2022/03/11 10:15:53;;;;;;;10.47;4.17;;;;;;;20.98;33.55;101977.00;20683596;27;97341;-81
2022/03/11 10:25:55;;;;;;;6.53;3.70;;;;;;;21.10;35.32;101971.13;20701468;27;97651;-80
2022/03/11 10:35:55;;;;;;;6.15;3.63;;;;;;;21.18;36.63;101960.16;20691375;28;99516;-79
2022/03/11 10:46:13;;;;;;;6.53;4.00;;;;;;;21.26;37.91;101949.22;20685571;28;97020;-80
2022/03/11 10:56:33;;;;;;;5.38;4.13;;;;;;;21.38;38.21;101945.09;20674849;28;97407;-80
2022/03/11 11:06:34;;;;;;;6.78;4.18;;;;;;;21.47;38.38;101926.16;20677074;28;97066;-80
2022/03/11 11:16:41;;;;;;;5.35;4.30;;;;;;;21.57;38.47;101910.72;20677071;28;97219;-80
2022/03/11 11:26:55;;;;;;;7.65;4.63;;;;;;;21.68;38.58;101910.97;20684131;28;97660;-79
2022/03/11 11:36:56;;;;;;;6.50;4.55;;;;;;;21.74;38.70;101894.81;20682308;28;97677;-80
2022/03/11 11:47:20;;;;;;;5.75;4.40;;;;;;;21.84;39.01;101874.03;20699229;28;99481;-79
2022/03/11 11:57:23;;;;;;;7.75;4.47;;;;;;;21.95;39.14;101862.88;20693708;28;96831;-80
2022/03/11 12:07:48;;;;;;;7.13;4.40;;;;;;;22.04;38.93;101851.78;20704221;28;97433;-82
2022/03/11 12:17:55;;;;;;;8.20;4.45;;;;;;;22.14;38.91;101845.97;20708649;27;97004;-78
2022/03/11 12:28:00;;;;;;;8.13;4.80;;;;;;;22.23;39.01;101832.25;20681109;28;98756;-80
2022/03/11 12:38:02;;;;;;;7.05;4.82;;;;;;;22.31;39.30;101814.16;20655829;28;97763;-79
2022/03/11 12:48:04;;;;;;;8.23;4.53;;;;;;;22.39;38.78;101803.19;20662438;28;97305;-78
2022/03/11 12:58:08;;;;;;;7.07;4.73;;;;;;;22.45;38.56;101800.19;20663239;28;101511;-78
2022/03/11 13:08:13;;;;;;;6.95;5.15;;;;;;;22.49;38.69;101791.13;20658099;28;97095;-78
2022/03/11 13:18:18;;;;;;;7.68;5.00;;;;;;;22.54;38.70;101789.09;20675669;28;97646;-78
2022/03/11 13:28:49;;;;;;;5.68;4.70;;;;;;;22.60;38.40;101768.53;20669526;28;96909;-77
2022/03/11 13:39:07;;;;;;;5.00;4.38;;;;;;;22.64;38.60;101759.47;20649424;28;97580;-77
2022/03/11 13:49:10;;;;;;;6.75;4.15;;;;;;;22.68;38.45;101753.91;20676639;28;97810;-78
2022/03/11 13:59:11;;;;;;;4.95;4.10;;;;;;;22.69;38.16;101741.53;20659648;27;102627;-78
2022/03/11 14:09:11;;;;;;;7.82;3.50;;;;;;;22.62;36.07;101743.72;20584139;27;100453;-77
2022/03/11 14:19:12;;;;;;;6.72;3.20;;;;;;;22.70;36.49;101736.19;20585135;27;97761;-80
2022/03/11 14:29:13;;;;;;;6.73;3.40;;;;;;;22.79;37.86;101731.25;20592301;28;96956;-78
2022/03/11 14:39:13;;;;;;;6.25;2.72;;;;;;;22.77;37.35;101719.94;20639479;28;97013;-79
2022/03/11 14:49:14;;;;;;;7.78;2.83;;;;;;;22.81;37.06;101702.94;20657031;27;100915;-77
2022/03/11 14:59:15;;;;;;;7.25;2.30;;;;;;;22.78;36.84;101700.53;20668246;28;97610;-77
2022/03/11 15:09:16;;;;;;;8.68;2.80;;;;;;;22.60;28.65;101699.88;20666292;28;97129;-81
2022/03/11 15:19:17;;;;;;;6.80;2.13;;;;;;;21.78;23.86;101692.47;20678505;27;99595;-78
2022/03/11 15:29:17;;;;;;;5.07;1.90;;;;;;;22.13;29.70;101691.28;20668803;28;98426;-77
2022/03/11 15:39:18;;;;;;;2.55;2.05;;;;;;;21.86;26.31;101684.97;20668430;27;97586;-77
2022/03/11 15:49:19;;;;;;;4.00;1.80;;;;;;;21.58;25.70;101678.69;20674224;28;98212;-78
2022/03/11 15:59:20;;;;;;;5.10;2.80;;;;;;;21.71;28.78;101676.16;20660408;28;98698;-79
2022/03/11 16:09:21;;;;;;;9.95;3.10;;;;;;;21.70;29.40;101686.78;20672749;28;98074;-78
2022/03/11 16:19:21;;;;;;;6.13;3.20;;;;;;;21.67;30.09;101687.81;20657168;28;97121;-78
2022/03/11 16:29:22;;;;;;;4.22;2.47;;;;;;;21.63;30.20;101685.44;20648047;28;97870;-77
2022/03/11 16:39:22;;;;;;;4.40;2.92;;;;;;;21.58;30.23;101683.09;20638926;28;98195;-78
2022/03/11 16:49:24;;;;;;;3.97;2.42;;;;;;;21.50;30.67;101686.13;20641129;27;99436;-78
2022/03/11 16:59:24;;;;;;;3.17;2.13;;;;;;;21.52;31.92;101693.94;20659534;27;97074;-77
2022/03/11 17:09:25;;;;;;;13.40;2.50;;;;;;;20.62;25.38;101696.31;20649681;27;100759;-76
2022/03/11 17:19:25;;;;;;;6.13;2.50;;;;;;;21.18;29.90;101711.69;20651583;28;99350;-77
2022/03/11 17:29:26;;;;;;;6.40;1.98;;;;;;;21.32;31.28;101717.03;20652618;27;100556;-77
2022/03/11 17:39:28;;;;;;;3.65;1.85;;;;;;;21.39;32.09;101723.66;20681001;27;98047;-80
2022/03/11 17:49:29;;;;;;;4.87;2.27;;;;;;;21.51;33.25;101718.63;20687107;27;98461;-78
2022/03/11 17:59:30;;;;;;;5.95;2.50;;;;;;;21.56;33.85;101732.38;20686579;28;96855;-79
2022/03/11 18:09:31;;;;;;;8.52;2.65;;;;;;;21.59;34.17;101738.38;20669168;27;97606;-78
2022/03/11 18:19:32;;;;;;;14.63;3.25;;;;;;;21.52;34.30;101751.94;20679515;28;101370;-78
2022/03/11 18:29:33;;;;;;;7.70;2.88;;;;;;;21.67;34.66;101748.44;20665797;28;97258;-78
2022/03/11 18:39:33;;;;;;;313.02;136.98;;;;;;;21.62;32.89;101758.41;20665721;28;97495;-78
2022/03/11 18:49:34;;;;;;;202.43;88.82;;;;;;;21.51;30.80;101773.97;20621847;27;97666;-79
2022/03/11 18:59:36;;;;;;;204.52;94.55;;;;;;;21.70;33.14;101784.34;20668832;28;98048;-78
2022/03/11 19:09:36;;;;;;;208.27;97.78;;;;;;;21.77;33.76;101785.69;20666148;28;97506;-78
2022/03/11 19:19:37;;;;;;;192.35;95.30;;;;;;;21.85;35.61;101796.63;20672398;28;98135;-78
2022/03/11 19:29:38;;;;;;;183.18;88.97;;;;;;;21.86;35.26;101803.63;20683408;28;97768;-80
2022/03/11 19:39:38;;;;;;;166.23;83.45;;;;;;;21.95;35.27;101814.53;20681978;27;98542;-79
2022/03/11 19:49:39;;;;;;;157.77;75.72;;;;;;;21.95;35.54;101818.03;20678454;27;96820;-79
2022/03/11 19:59:44;;;;;;;143.35;67.95;;;;;;;21.84;37.09;101805.47;20662180;28;96841;-77
2022/03/11 20:09:45;;;;;;;126.20;61.35;;;;;;;;;;20658656;27;99296;-77
2022/03/11 20:19:45;;;;;;;119.97;57.65;;;;;;;21.65;37.66;101837.31;20668734;28;96480;-77
2022/03/11 20:29:46;;;;;;;113.03;54.90;;;;;;;21.56;38.02;101848.34;20677362;27;97030;-77
2022/03/11 20:39:46;;;;;;;107.20;51.88;;;;;;;21.49;38.16;101858.38;20661673;28;96929;-77
2022/03/11 20:49:54;;;;;;;99.43;49.15;;;;;;;21.41;38.48;101868.47;20661451;28;97617;-77
2022/03/11 20:59:55;;;;;;;90.75;45.50;;;;;;;21.30;38.61;101873.50;20658194;28;97153;-77
2022/03/11 21:09:56;;;;;;;82.75;42.47;;;;;;;21.22;38.36;101884.47;20657693;28;97498;-77
2022/03/11 21:19:56;;;;;;;81.68;40.50;;;;;;;21.15;38.61;101881.28;20658942;28;103236;-77
2022/03/11 21:29:57;;;;;;;72.53;37.22;;;;;;;21.14;38.69;101892.78;20660315;28;103770;-77
2022/03/11 21:39:59;;;;;;;73.32;35.72;;;;;;;21.10;39.18;101889.47;20663426;28;97672;-77
2022/03/11 21:50:01;;;;;;;66.07;33.47;;;;;;;21.05;38.99;101890.63;20659359;28;97231;-76
2022/03/11 22:00:04;;;;;;;59.40;31.45;;;;;;;20.98;39.23;101899.78;20665018;28;97401;-77
2022/03/11 22:10:08;;;;;;;56.50;29.58;;;;;;;20.92;39.35;101899.19;20672411;28;99027;-78
2022/03/11 22:20:09;;;;;;;56.28;28.60;;;;;;;20.89;39.32;101899.31;20660623;27;97211;-78
2022/03/11 22:30:10;;;;;;;48.50;25.60;;;;;;;20.78;39.52;101910.41;20662663;28;96961;-78
2022/03/11 22:40:19;;;;;;;50.58;24.85;;;;;;;20.73;39.39;101919.50;20672981;27;98269;-78
2022/03/11 22:50:31;;;;;;;45.03;23.85;;;;;;;20.69;39.44;101916.13;20657760;28;98235;-78
2022/03/11 23:00:52;;;;;;;44.55;21.42;;;;;;;20.66;39.36;101924.16;20656501;27;100696;-78
2022/03/11 23:10:54;;;;;;;41.70;21.75;;;;;;;20.66;39.15;101926.81;20652076;28;98833;-78
2022/03/11 23:20:54;;;;;;;36.38;19.85;;;;;;;20.60;39.24;101933.25;20660334;28;97213;-78
2022/03/11 23:30:55;;;;;;;33.72;18.95;;;;;;;20.58;38.95;101932.47;20650111;28;97353;-78
2022/03/11 23:40:57;;;;;;;31.50;17.60;;;;;;;20.59;39.51;101934.19;20653509;28;98260;-78
2022/03/11 23:50:59;;;;;;;32.43;17.40;;;;;;;20.54;38.73;101933.53;20655115;28;97971;-78
